sensor_id;sensor_type;location;lat;lon;timestamp;pressure;altitude;pressure_sealevel;temperature;humidity
55460;BME280;41326;45.302;-122.946;2023-02-13T00:00:20;101545.69;;;17.26;55.47
55460;BME280;41326;45.302;-122.946;2023-02-13T00:02:50;101540.60;;;17.25;55.49
55460;BME280;41326;45.302;-122.946;2023-02-13T00:05:20;101553.79;;;17.24;55.58
55460;BME280;41326;45.302;-122.946;2023-02-13T00:07:51;101566.08;;;17.25;55.60
55460;BME280;41326;45.302;-122.946;2023-02-13T00:10:21;101574.63;;;17.23;55.79
55460;BME280;41326;45.302;-122.946;2023-02-13T00:12:51;101572.39;;;17.24;55.70
55460;BME280;41326;45.302;-122.946;2023-02-13T00:15:21;101568.83;;;17.22;55.74
55460;BME280;41326;45.302;-122.946;2023-02-13T00:17:52;101566.36;;;17.26;55.43
55460;BME280;41326;45.302;-122.946;2023-02-13T00:20:22;101569.16;;;17.58;55.21
55460;BME280;41326;45.302;-122.946;2023-02-13T00:22:53;101563.51;;;17.91;54.34
55460;BME280;41326;45.302;-122.946;2023-02-13T00:25:22;101549.82;;;17.92;54.15
55460;BME280;41326;45.302;-122.946;2023-02-13T00:27:53;101545.15;;;17.85;54.60
55460;BME280;41326;45.302;-122.946;2023-02-13T00:30:23;101539.08;;;17.89;54.34
55460;BME280;41326;45.302;-122.946;2023-02-13T00:32:54;101534.22;;;17.91;54.01
55460;BME280;41326;45.302;-122.946;2023-02-13T00:35:24;101529.67;;;17.88;54.10
55460;BME280;41326;45.302;-122.946;2023-02-13T00:37:54;101519.96;;;17.88;54.05
55460;BME280;41326;45.302;-122.946;2023-02-13T00:40:25;101518.29;;;17.85;53.48
55460;BME280;41326;45.302;-122.946;2023-02-13T00:42:55;101519.09;;;17.83;53.84
55460;BME280;41326;45.302;-122.946;2023-02-13T00:45:25;101515.30;;;17.82;53.77
55460;BME280;41326;45.302;-122.946;2023-02-13T00:47:55;101519.64;;;18.03;53.22
55460;BME280;41326;45.302;-122.946;2023-02-13T00:50:25;101516.54;;;18.27;53.04
55460;BME280;41326;45.302;-122.946;2023-02-13T00:52:55;101507.98;;;18.42;52.64
55460;BME280;41326;45.302;-122.946;2023-02-13T00:55:26;101500.77;;;18.57;52.16
55460;BME280;41326;45.302;-122.946;2023-02-13T00:57:58;101505.13;;;18.60;52.04
55460;BME280;41326;45.302;-122.946;2023-02-13T01:00:27;101507.82;;;18.63;51.99
55460;BME280;41326;45.302;-122.946;2023-02-13T01:02:58;101505.16;;;18.68;51.84
55460;BME280;41326;45.302;-122.946;2023-02-13T01:05:28;101499.06;;;18.76;51.91
55460;BME280;41326;45.302;-122.946;2023-02-13T01:07:58;101489.86;;;18.90;51.60
55460;BME280;41326;45.302;-122.946;2023-02-13T01:10:29;101483.43;;;19.03;51.29
55460;BME280;41326;45.302;-122.946;2023-02-13T01:13:00;101479.67;;;19.12;51.06
55460;BME280;41326;45.302;-122.946;2023-02-13T01:15:30;101474.21;;;19.11;50.97
55460;BME280;41326;45.302;-122.946;2023-02-13T01:18:00;101466.92;;;19.03;51.09
55460;BME280;41326;45.302;-122.946;2023-02-13T01:20:31;101460.78;;;19.08;51.16
55460;BME280;41326;45.302;-122.946;2023-02-13T01:23:03;101450.81;;;19.16;51.08
55460;BME280;41326;45.302;-122.946;2023-02-13T01:25:31;101453.72;;;19.28;51.04
55460;BME280;41326;45.302;-122.946;2023-02-13T01:28:01;101448.07;;;19.35;50.81
55460;BME280;41326;45.302;-122.946;2023-02-13T01:30:32;101442.12;;;19.34;50.79
55460;BME280;41326;45.302;-122.946;2023-02-13T01:33:02;101440.21;;;19.27;50.87
55460;BME280;41326;45.302;-122.946;2023-02-13T01:35:33;101443.42;;;19.25;51.07
55460;BME280;41326;45.302;-122.946;2023-02-13T01:38:03;101432.72;;;19.35;51.07
55460;BME280;41326;45.302;-122.946;2023-02-13T01:40:34;101424.91;;;19.46;50.86
55460;BME280;41326;45.302;-122.946;2023-02-13T01:43:04;101423.10;;;19.49;50.76
55460;BME280;41326;45.302;-122.946;2023-02-13T01:45:34;101419.40;;;19.41;51.01
55460;BME280;41326;45.302;-122.946;2023-02-13T01:48:06;101414.56;;;19.27;51.32
55460;BME280;41326;45.302;-122.946;2023-02-13T01:50:38;101412.80;;;19.25;51.69
55460;BME280;41326;45.302;-122.946;2023-02-13T01:53:10;101415.86;;;19.36;51.62
55460;BME280;41326;45.302;-122.946;2023-02-13T01:55:40;101418.17;;;19.50;51.39
55460;BME280;41326;45.302;-122.946;2023-02-13T01:58:11;101426.02;;;19.45;51.64
55460;BME280;41326;45.302;-122.946;2023-02-13T02:00:36;101423.92;;;19.42;51.31
55460;BME280;41326;45.302;-122.946;2023-02-13T02:03:12;101422.58;;;19.44;51.50
55460;BME280;41326;45.302;-122.946;2023-02-13T02:05:39;101419.48;;;19.36;51.85
55460;BME280;41326;45.302;-122.946;2023-02-13T02:08:10;101421.06;;;19.28;52.02
55460;BME280;41326;45.302;-122.946;2023-02-13T02:10:38;101420.48;;;19.37;51.62
55460;BME280;41326;45.302;-122.946;2023-02-13T02:13:12;101412.88;;;19.45;50.99
55460;BME280;41326;45.302;-122.946;2023-02-13T02:15:39;101411.11;;;19.37;51.71
55460;BME280;41326;45.302;-122.946;2023-02-13T02:18:13;101409.33;;;19.33;52.29
55460;BME280;41326;45.302;-122.946;2023-02-13T02:25:51;101408.94;;;19.24;54.11
55460;BME280;41326;45.302;-122.946;2023-02-13T02:33:17;101407.02;;;19.10;53.97
55460;BME280;41326;45.302;-122.946;2023-02-13T02:35:46;101399.41;;;19.15;53.43
55460;BME280;41326;45.302;-122.946;2023-02-13T02:38:22;101395.23;;;19.15;53.22
55460;BME280;41326;45.302;-122.946;2023-02-13T02:40:49;101393.75;;;19.03;53.74
55460;BME280;41326;45.302;-122.946;2023-02-13T02:43:24;101390.03;;;18.91;54.50
55460;BME280;41326;45.302;-122.946;2023-02-13T02:45:46;101392.55;;;18.73;55.36
55460;BME280;41326;45.302;-122.946;2023-02-13T02:48:18;101399.93;;;18.66;55.28
55460;BME280;41326;45.302;-122.946;2023-02-13T02:50:48;101406.59;;;18.53;55.72
55460;BME280;41326;45.302;-122.946;2023-02-13T02:53:24;101406.59;;;18.53;54.89
55460;BME280;41326;45.302;-122.946;2023-02-13T02:55:49;101407.13;;;18.43;54.69
55460;BME280;41326;45.302;-122.946;2023-02-13T02:58:18;101405.74;;;18.41;54.49
55460;BME280;41326;45.302;-122.946;2023-02-13T03:00:47;101408.17;;;18.36;54.32
55460;BME280;41326;45.302;-122.946;2023-02-13T03:03:21;101409.79;;;18.32;54.21
55460;BME280;41326;45.302;-122.946;2023-02-13T03:05:48;101408.95;;;18.27;54.22
55460;BME280;41326;45.302;-122.946;2023-02-13T03:08:16;101409.52;;;18.23;54.03
55460;BME280;41326;45.302;-122.946;2023-02-13T03:10:46;101406.46;;;18.18;54.69
55460;BME280;41326;45.302;-122.946;2023-02-13T03:15:49;101391.17;;;18.15;55.06
55460;BME280;41326;45.302;-122.946;2023-02-13T03:18:17;101389.52;;;18.14;54.57
55460;BME280;41326;45.302;-122.946;2023-02-13T03:20:52;101394.91;;;18.12;54.99
55460;BME280;41326;45.302;-122.946;2023-02-13T03:23:24;101391.32;;;18.05;54.89
55460;BME280;41326;45.302;-122.946;2023-02-13T03:26:04;101387.67;;;18.23;54.32
55460;BME280;41326;45.302;-122.946;2023-02-13T03:28:24;101394.47;;;18.33;54.10
55460;BME280;41326;45.302;-122.946;2023-02-13T03:30:58;101402.88;;;18.36;53.92
55460;BME280;41326;45.302;-122.946;2023-02-13T03:33:33;101400.45;;;18.27;54.50
55460;BME280;41326;45.302;-122.946;2023-02-13T03:35:57;101394.57;;;18.22;55.90
55460;BME280;41326;45.302;-122.946;2023-02-13T03:38:24;101391.38;;;18.14;56.50
55460;BME280;41326;45.302;-122.946;2023-02-13T03:40:55;101402.45;;;18.15;56.48
55460;BME280;41326;45.302;-122.946;2023-02-13T03:43:22;101404.25;;;18.08;56.98
55460;BME280;41326;45.302;-122.946;2023-02-13T03:45:53;101392.76;;;18.05;57.62
55460;BME280;41326;45.302;-122.946;2023-02-13T03:48:24;101393.96;;;18.05;57.90
55460;BME280;41326;45.302;-122.946;2023-02-13T03:50:52;101389.87;;;18.01;58.87
55460;BME280;41326;45.302;-122.946;2023-02-13T03:53:22;101384.38;;;17.98;59.26
55460;BME280;41326;45.302;-122.946;2023-02-13T03:55:52;101380.94;;;17.93;59.44
55460;BME280;41326;45.302;-122.946;2023-02-13T03:58:26;101377.05;;;17.97;58.60
55460;BME280;41326;45.302;-122.946;2023-02-13T04:00:56;101375.54;;;17.86;58.72
55460;BME280;41326;45.302;-122.946;2023-02-13T04:03:29;101378.94;;;17.87;58.29
55460;BME280;41326;45.302;-122.946;2023-02-13T04:05:57;101376.19;;;17.82;57.77
55460;BME280;41326;45.302;-122.946;2023-02-13T04:08:23;101379.23;;;17.81;56.74
55460;BME280;41326;45.302;-122.946;2023-02-13T04:10:59;101383.26;;;18.00;55.58
55460;BME280;41326;45.302;-122.946;2023-02-13T04:13:30;101380.17;;;18.20;55.02
55460;BME280;41326;45.302;-122.946;2023-02-13T04:16:00;101387.30;;;18.20;54.79
55460;BME280;41326;45.302;-122.946;2023-02-13T04:18:27;101390.60;;;18.09;54.99
55460;BME280;41326;45.302;-122.946;2023-02-13T04:20:56;101388.20;;;18.10;54.66
55460;BME280;41326;45.302;-122.946;2023-02-13T04:23:26;101383.30;;;18.01;54.73
55460;BME280;41326;45.302;-122.946;2023-02-13T04:25:58;101377.99;;;17.93;55.12
55460;BME280;41326;45.302;-122.946;2023-02-13T04:28:26;101375.19;;;17.88;54.91
55460;BME280;41326;45.302;-122.946;2023-02-13T04:30:56;101378.75;;;17.85;54.68
55460;BME280;41326;45.302;-122.946;2023-02-13T04:33:26;101383.69;;;17.96;54.33
55460;BME280;41326;45.302;-122.946;2023-02-13T04:35:57;101382.69;;;18.17;53.17
55460;BME280;41326;45.302;-122.946;2023-02-13T04:38:28;101383.82;;;18.25;52.87
55460;BME280;41326;45.302;-122.946;2023-02-13T04:40:58;101375.23;;;18.14;53.42
55460;BME280;41326;45.302;-122.946;2023-02-13T04:43:28;101377.64;;;18.05;53.68
55460;BME280;41326;45.302;-122.946;2023-02-13T04:45:58;101381.90;;;18.02;53.59
55460;BME280;41326;45.302;-122.946;2023-02-13T04:48:28;101388.78;;;17.93;54.00
55460;BME280;41326;45.302;-122.946;2023-02-13T04:50:59;101399.01;;;17.82;54.15
55460;BME280;41326;45.302;-122.946;2023-02-13T04:53:30;101398.55;;;18.00;53.57
55460;BME280;41326;45.302;-122.946;2023-02-13T04:56:01;101404.44;;;18.18;53.03
55460;BME280;41326;45.302;-122.946;2023-02-13T04:58:31;101408.12;;;18.14;53.22
55460;BME280;41326;45.302;-122.946;2023-02-13T05:01:01;101399.04;;;18.14;53.12
55460;BME280;41326;45.302;-122.946;2023-02-13T05:03:33;101397.02;;;18.03;53.43
55460;BME280;41326;45.302;-122.946;2023-02-13T05:06:02;101392.97;;;17.97;53.84
55460;BME280;41326;45.302;-122.946;2023-02-13T05:08:34;101366.69;;;17.93;54.16
55460;BME280;41326;45.302;-122.946;2023-02-13T05:11:03;101329.28;;;17.87;54.39
55460;BME280;41326;45.302;-122.946;2023-02-13T05:13:33;101312.73;;;17.79;54.54
55460;BME280;41326;45.302;-122.946;2023-02-13T05:16:03;101317.86;;;17.80;54.53
55460;BME280;41326;45.302;-122.946;2023-02-13T05:18:34;101319.30;;;17.78;54.44
55460;BME280;41326;45.302;-122.946;2023-02-13T05:21:04;101320.61;;;17.77;54.38
55460;BME280;41326;45.302;-122.946;2023-02-13T05:23:35;101332.62;;;17.66;54.94
55460;BME280;41326;45.302;-122.946;2023-02-13T05:26:05;101326.91;;;17.64;54.75
55460;BME280;41326;45.302;-122.946;2023-02-13T05:28:35;101326.48;;;17.63;54.86
55460;BME280;41326;45.302;-122.946;2023-02-13T05:31:06;101332.94;;;17.61;55.09
55460;BME280;41326;45.302;-122.946;2023-02-13T05:33:36;101342.87;;;17.56;54.99
55460;BME280;41326;45.302;-122.946;2023-02-13T05:36:06;101349.25;;;17.50;55.36
55460;BME280;41326;45.302;-122.946;2023-02-13T05:38:36;101351.27;;;17.51;55.21
55460;BME280;41326;45.302;-122.946;2023-02-13T05:41:07;101344.77;;;17.50;55.04
55460;BME280;41326;45.302;-122.946;2023-02-13T05:43:38;101346.42;;;17.48;55.30
55460;BME280;41326;45.302;-122.946;2023-02-13T05:46:09;101347.54;;;17.45;55.37
55460;BME280;41326;45.302;-122.946;2023-02-13T05:48:39;101349.96;;;17.40;55.38
55460;BME280;41326;45.302;-122.946;2023-02-13T05:51:09;101342.58;;;17.41;55.39
55460;BME280;41326;45.302;-122.946;2023-02-13T05:53:39;101343.10;;;17.39;55.40
55460;BME280;41326;45.302;-122.946;2023-02-13T05:56:11;101345.13;;;17.34;55.60
55460;BME280;41326;45.302;-122.946;2023-02-13T05:58:40;101344.75;;;17.36;55.44
55460;BME280;41326;45.302;-122.946;2023-02-13T06:01:11;101344.96;;;17.42;55.00
55460;BME280;41326;45.302;-122.946;2023-02-13T06:03:41;101343.98;;;17.36;55.28
55460;BME280;41326;45.302;-122.946;2023-02-13T06:06:11;101339.75;;;17.31;55.50
55460;BME280;41326;45.302;-122.946;2023-02-13T06:08:41;101340.77;;;17.31;55.50
55460;BME280;41326;45.302;-122.946;2023-02-13T06:11:12;101334.22;;;17.31;55.47
55460;BME280;41326;45.302;-122.946;2023-02-13T06:13:42;101322.62;;;17.29;55.52
55460;BME280;41326;45.302;-122.946;2023-02-13T06:16:13;101325.80;;;17.22;55.69
55460;BME280;41326;45.302;-122.946;2023-02-13T06:18:43;101321.95;;;17.20;55.66
55460;BME280;41326;45.302;-122.946;2023-02-13T06:21:13;101318.39;;;17.19;55.60
55460;BME280;41326;45.302;-122.946;2023-02-13T06:23:43;101314.17;;;17.17;55.76
55460;BME280;41326;45.302;-122.946;2023-02-13T06:26:14;101317.74;;;17.15;55.76
55460;BME280;41326;45.302;-122.946;2023-02-13T06:28:43;101323.79;;;17.08;56.10
55460;BME280;41326;45.302;-122.946;2023-02-13T06:31:14;101323.31;;;17.11;55.84
55460;BME280;41326;45.302;-122.946;2023-02-13T06:33:44;101324.58;;;17.13;55.71
55460;BME280;41326;45.302;-122.946;2023-02-13T06:36:15;101324.78;;;17.08;56.02
55460;BME280;41326;45.302;-122.946;2023-02-13T06:38:45;101322.93;;;17.10;56.00
55460;BME280;41326;45.302;-122.946;2023-02-13T06:41:16;101326.71;;;17.06;55.94
55460;BME280;41326;45.302;-122.946;2023-02-13T06:43:46;101322.62;;;17.01;56.25
55460;BME280;41326;45.302;-122.946;2023-02-13T06:46:16;101325.86;;;17.01;56.17
55460;BME280;41326;45.302;-122.946;2023-02-13T06:48:47;101329.80;;;17.04;55.98
55460;BME280;41326;45.302;-122.946;2023-02-13T06:51:17;101339.96;;;17.00;56.18
55460;BME280;41326;45.302;-122.946;2023-02-13T06:53:48;101334.28;;;16.98;56.22
55460;BME280;41326;45.302;-122.946;2023-02-13T06:56:18;101321.83;;;16.97;56.27
55460;BME280;41326;45.302;-122.946;2023-02-13T06:58:49;101317.93;;;16.91;56.45
55460;BME280;41326;45.302;-122.946;2023-02-13T07:01:20;101312.79;;;16.91;56.30
55460;BME280;41326;45.302;-122.946;2023-02-13T07:03:49;101312.05;;;16.90;56.45
55460;BME280;41326;45.302;-122.946;2023-02-13T07:06:22;101312.31;;;16.87;56.67
55460;BME280;41326;45.302;-122.946;2023-02-13T07:08:51;101311.51;;;16.86;56.55
55460;BME280;41326;45.302;-122.946;2023-02-13T07:11:23;101308.54;;;16.90;56.50
55460;BME280;41326;45.302;-122.946;2023-02-13T07:13:51;101303.67;;;16.82;56.87
55460;BME280;41326;45.302;-122.946;2023-02-13T07:16:22;101304.73;;;16.82;57.03
55460;BME280;41326;45.302;-122.946;2023-02-13T07:18:53;101304.69;;;16.80;56.92
55460;BME280;41326;45.302;-122.946;2023-02-13T07:21:23;101293.58;;;16.83;56.87
55460;BME280;41326;45.302;-122.946;2023-02-13T07:23:54;101286.90;;;16.78;57.03
55460;BME280;41326;45.302;-122.946;2023-02-13T07:26:23;101286.75;;;16.80;57.04
55460;BME280;41326;45.302;-122.946;2023-02-13T07:28:54;101282.53;;;16.80;56.88
55460;BME280;41326;45.302;-122.946;2023-02-13T07:31:24;101282.56;;;16.81;56.87
55460;BME280;41326;45.302;-122.946;2023-02-13T07:33:55;101282.32;;;16.75;56.93
55460;BME280;41326;45.302;-122.946;2023-02-13T07:36:25;101282.47;;;16.70;57.11
55460;BME280;41326;45.302;-122.946;2023-02-13T07:38:55;101279.87;;;16.75;56.88
55460;BME280;41326;45.302;-122.946;2023-02-13T07:41:26;101272.59;;;16.72;57.13
55460;BME280;41326;45.302;-122.946;2023-02-13T07:43:56;101268.26;;;16.65;57.55
55460;BME280;41326;45.302;-122.946;2023-02-13T07:46:26;101258.31;;;16.59;57.92
55460;BME280;41326;45.302;-122.946;2023-02-13T07:48:57;101253.36;;;16.64;57.73
55460;BME280;41326;45.302;-122.946;2023-02-13T07:51:27;101258.15;;;16.64;57.61
55460;BME280;41326;45.302;-122.946;2023-02-13T07:53:57;101257.53;;;16.62;57.78
55460;BME280;41326;45.302;-122.946;2023-02-13T07:56:27;101255.33;;;16.62;57.96
55460;BME280;41326;45.302;-122.946;2023-02-13T07:58:58;101260.69;;;16.63;57.84
55460;BME280;41326;45.302;-122.946;2023-02-13T08:01:28;101276.67;;;16.60;58.06
55460;BME280;41326;45.302;-122.946;2023-02-13T08:03:58;101278.37;;;16.59;58.11
55460;BME280;41326;45.302;-122.946;2023-02-13T08:06:29;101272.71;;;16.58;58.22
55460;BME280;41326;45.302;-122.946;2023-02-13T08:08:59;101266.73;;;16.57;58.37
55460;BME280;41326;45.302;-122.946;2023-02-13T08:12:36;101243.33;;;16.53;58.54
55460;BME280;41326;45.302;-122.946;2023-02-13T08:15:08;101243.18;;;16.54;58.26
55460;BME280;41326;45.302;-122.946;2023-02-13T08:17:36;101237.49;;;16.52;58.52
55460;BME280;41326;45.302;-122.946;2023-02-13T08:20:07;101225.94;;;16.51;58.41
55460;BME280;41326;45.302;-122.946;2023-02-13T08:22:48;101223.54;;;16.49;58.43
55460;BME280;41326;45.302;-122.946;2023-02-13T08:25:18;101211.02;;;16.46;58.79
55460;BME280;41326;45.302;-122.946;2023-02-13T08:27:48;101202.87;;;16.44;58.82
55460;BME280;41326;45.302;-122.946;2023-02-13T08:30:18;101197.72;;;16.41;58.77
55460;BME280;41326;45.302;-122.946;2023-02-13T08:32:48;101196.82;;;16.39;58.81
55460;BME280;41326;45.302;-122.946;2023-02-13T08:35:18;101201.65;;;16.40;58.91
55460;BME280;41326;45.302;-122.946;2023-02-13T08:37:49;101203.09;;;16.41;58.79
55460;BME280;41326;45.302;-122.946;2023-02-13T08:40:19;101211.00;;;16.35;59.07
55460;BME280;41326;45.302;-122.946;2023-02-13T08:42:49;101210.97;;;16.37;59.06
55460;BME280;41326;45.302;-122.946;2023-02-13T08:45:20;101209.11;;;16.36;59.23
55460;BME280;41326;45.302;-122.946;2023-02-13T08:47:50;101203.22;;;16.36;59.02
55460;BME280;41326;45.302;-122.946;2023-02-13T08:50:20;101197.75;;;16.32;59.28
55460;BME280;41326;45.302;-122.946;2023-02-13T08:52:51;101193.65;;;16.34;59.31
55460;BME280;41326;45.302;-122.946;2023-02-13T08:55:21;101194.97;;;16.31;59.62
55460;BME280;41326;45.302;-122.946;2023-02-13T08:57:52;101197.35;;;16.31;59.44
55460;BME280;41326;45.302;-122.946;2023-02-13T09:00:22;101197.05;;;16.30;59.36
55460;BME280;41326;45.302;-122.946;2023-02-13T09:02:52;101190.34;;;16.24;59.62
55460;BME280;41326;45.302;-122.946;2023-02-13T09:05:22;101193.82;;;16.27;59.54
55460;BME280;41326;45.302;-122.946;2023-02-13T09:07:52;101188.52;;;16.25;59.59
55460;BME280;41326;45.302;-122.946;2023-02-13T09:10:23;101190.28;;;16.21;59.72
55460;BME280;41326;45.302;-122.946;2023-02-13T09:12:57;101190.78;;;16.21;59.76
55460;BME280;41326;45.302;-122.946;2023-02-13T09:15:23;101184.03;;;16.24;59.45
55460;BME280;41326;45.302;-122.946;2023-02-13T09:17:55;101180.63;;;16.23;59.47
55460;BME280;41326;45.302;-122.946;2023-02-13T09:20:24;101183.08;;;16.22;59.48
55460;BME280;41326;45.302;-122.946;2023-02-13T09:22:54;101179.32;;;16.20;59.49
55460;BME280;41326;45.302;-122.946;2023-02-13T09:25:24;101179.12;;;16.12;59.90
55460;BME280;41326;45.302;-122.946;2023-02-13T09:27:55;101172.42;;;16.15;59.78
55460;BME280;41326;45.302;-122.946;2023-02-13T09:30:26;101166.80;;;16.15;59.83
55460;BME280;41326;45.302;-122.946;2023-02-13T09:32:56;101170.50;;;16.16;59.71
55460;BME280;41326;45.302;-122.946;2023-02-13T09:35:28;101172.95;;;16.13;59.74
55460;BME280;41326;45.302;-122.946;2023-02-13T09:37:59;101170.10;;;16.14;59.65
55460;BME280;41326;45.302;-122.946;2023-02-13T09:40:31;101168.24;;;16.09;59.85
55460;BME280;41326;45.302;-122.946;2023-02-13T09:43:00;101170.75;;;16.07;59.76
55460;BME280;41326;45.302;-122.946;2023-02-13T09:45:28;101170.92;;;16.06;60.00
55460;BME280;41326;45.302;-122.946;2023-02-13T09:47:59;101166.50;;;16.09;60.18
55460;BME280;41326;45.302;-122.946;2023-02-13T09:50:30;101159.41;;;16.08;60.43
55460;BME280;41326;45.302;-122.946;2023-02-13T09:52:59;101169.25;;;16.06;60.43
55460;BME280;41326;45.302;-122.946;2023-02-13T09:55:34;101174.83;;;16.07;60.22
55460;BME280;41326;45.302;-122.946;2023-02-13T09:58:04;101174.07;;;16.05;60.19
55460;BME280;41326;45.302;-122.946;2023-02-13T10:00:34;101179.53;;;16.02;60.23
55460;BME280;41326;45.302;-122.946;2023-02-13T10:03:12;101182.76;;;16.00;60.13
55460;BME280;41326;45.302;-122.946;2023-02-13T10:05:43;101186.97;;;15.97;60.26
55460;BME280;41326;45.302;-122.946;2023-02-13T10:08:07;101188.27;;;15.96;60.38
55460;BME280;41326;45.302;-122.946;2023-02-13T10:10:36;101191.79;;;15.97;60.35
55460;BME280;41326;45.302;-122.946;2023-02-13T10:15:37;101186.78;;;15.99;60.29
55460;BME280;41326;45.302;-122.946;2023-02-13T10:18:05;101192.99;;;15.99;60.20
55460;BME280;41326;45.302;-122.946;2023-02-13T10:20:37;101189.44;;;15.96;60.11
55460;BME280;41326;45.302;-122.946;2023-02-13T10:23:14;101175.12;;;15.92;60.26
55460;BME280;41326;45.302;-122.946;2023-02-13T10:25:39;101174.42;;;15.98;60.06
55460;BME280;41326;45.302;-122.946;2023-02-13T10:28:08;101163.02;;;15.95;60.18
55460;BME280;41326;45.302;-122.946;2023-02-13T10:30:39;101158.58;;;15.93;60.25
55460;BME280;41326;45.302;-122.946;2023-02-13T10:33:10;101156.63;;;15.94;60.19
55460;BME280;41326;45.302;-122.946;2023-02-13T10:35:36;101160.82;;;15.91;60.20
55460;BME280;41326;45.302;-122.946;2023-02-13T10:40:37;101151.43;;;15.90;60.12
55460;BME280;41326;45.302;-122.946;2023-02-13T10:43:11;101149.08;;;15.88;60.04
55460;BME280;41326;45.302;-122.946;2023-02-13T10:45:48;101151.02;;;15.90;59.92
55460;BME280;41326;45.302;-122.946;2023-02-13T10:48:19;101149.73;;;15.93;59.87
55460;BME280;41326;45.302;-122.946;2023-02-13T10:50:42;101139.79;;;15.89;59.91
55460;BME280;41326;45.302;-122.946;2023-02-13T10:53:14;101140.07;;;15.90;59.89
55460;BME280;41326;45.302;-122.946;2023-02-13T10:58:12;101120.47;;;15.84;60.04
55460;BME280;41326;45.302;-122.946;2023-02-13T11:00:42;101120.35;;;15.85;59.99
55460;BME280;41326;45.302;-122.946;2023-02-13T11:03:11;101126.92;;;15.78;60.30
55460;BME280;41326;45.302;-122.946;2023-02-13T11:05:42;101122.76;;;15.84;60.20
55460;BME280;41326;45.302;-122.946;2023-02-13T11:08:16;101115.46;;;15.81;60.62
55460;BME280;41326;45.302;-122.946;2023-02-13T11:10:40;101113.68;;;15.82;60.47
55460;BME280;41326;45.302;-122.946;2023-02-13T11:13:15;101109.94;;;15.81;60.56
55460;BME280;41326;45.302;-122.946;2023-02-13T11:15:39;101107.88;;;15.83;60.70
55460;BME280;41326;45.302;-122.946;2023-02-13T11:18:17;101101.68;;;15.79;60.74
55460;BME280;41326;45.302;-122.946;2023-02-13T11:20:41;101117.21;;;15.79;60.61
55460;BME280;41326;45.302;-122.946;2023-02-13T11:23:17;101125.39;;;15.74;60.72
55460;BME280;41326;45.302;-122.946;2023-02-13T11:25:40;101126.26;;;15.77;60.59
55460;BME280;41326;45.302;-122.946;2023-02-13T11:28:14;101124.71;;;15.79;60.69
55460;BME280;41326;45.302;-122.946;2023-02-13T11:30:41;101123.68;;;15.77;60.70
55460;BME280;41326;45.302;-122.946;2023-02-13T11:33:20;101118.45;;;15.77;60.57
55460;BME280;41326;45.302;-122.946;2023-02-13T11:35:41;101119.37;;;15.77;60.55
55460;BME280;41326;45.302;-122.946;2023-02-13T11:38:21;101120.00;;;15.77;60.54
55460;BME280;41326;45.302;-122.946;2023-02-13T11:40:42;101116.68;;;15.72;60.92
55460;BME280;41326;45.302;-122.946;2023-02-13T11:43:17;101111.95;;;15.74;60.73
55460;BME280;41326;45.302;-122.946;2023-02-13T11:45:42;101116.42;;;15.76;60.69
55460;BME280;41326;45.302;-122.946;2023-02-13T11:48:18;101118.66;;;15.69;60.90
55460;BME280;41326;45.302;-122.946;2023-02-13T11:50:51;101113.14;;;15.67;60.91
55460;BME280;41326;45.302;-122.946;2023-02-13T11:53:18;101117.60;;;15.61;61.13
55460;BME280;41326;45.302;-122.946;2023-02-13T11:55:45;101122.92;;;15.63;61.02
55460;BME280;41326;45.302;-122.946;2023-02-13T11:58:22;101118.96;;;15.63;60.93
55460;BME280;41326;45.302;-122.946;2023-02-13T12:00:45;101125.18;;;15.61;60.85
55460;BME280;41326;45.302;-122.946;2023-02-13T12:03:24;101116.63;;;15.60;61.04
55460;BME280;41326;45.302;-122.946;2023-02-13T12:08:15;101109.96;;;15.59;61.01
55460;BME280;41326;45.302;-122.946;2023-02-13T12:10:45;101097.36;;;15.61;61.04
55460;BME280;41326;45.302;-122.946;2023-02-13T12:13:20;101102.54;;;15.58;61.04
55460;BME280;41326;45.302;-122.946;2023-02-13T12:15:46;101101.27;;;15.58;60.87
55460;BME280;41326;45.302;-122.946;2023-02-13T12:18:22;101092.50;;;15.58;60.97
55460;BME280;41326;45.302;-122.946;2023-02-13T12:20:54;101095.53;;;15.54;60.85
55460;BME280;41326;45.302;-122.946;2023-02-13T12:23:27;101090.62;;;15.51;61.07
55460;BME280;41326;45.302;-122.946;2023-02-13T12:25:58;101083.82;;;15.48;61.07
55460;BME280;41326;45.302;-122.946;2023-02-13T12:28:19;101084.31;;;15.45;61.27
55460;BME280;41326;45.302;-122.946;2023-02-13T12:31:00;101084.95;;;15.44;61.28
55460;BME280;41326;45.302;-122.946;2023-02-13T12:33:27;101092.16;;;15.48;61.09
55460;BME280;41326;45.302;-122.946;2023-02-13T12:35:54;101098.03;;;15.47;60.97
55460;BME280;41326;45.302;-122.946;2023-02-13T12:38:29;101099.51;;;15.45;60.91
55460;BME280;41326;45.302;-122.946;2023-02-13T12:41:01;101096.63;;;15.41;60.95
55460;BME280;41326;45.302;-122.946;2023-02-13T12:45:54;101092.34;;;15.42;61.01
55460;BME280;41326;45.302;-122.946;2023-02-13T12:48:30;101088.03;;;15.40;61.00
55460;BME280;41326;45.302;-122.946;2023-02-13T12:51:00;101084.97;;;15.39;61.01
55460;BME280;41326;45.302;-122.946;2023-02-13T12:53:35;101082.14;;;15.37;60.87
55460;BME280;41326;45.302;-122.946;2023-02-13T12:56:02;101080.21;;;15.37;60.87
55460;BME280;41326;45.302;-122.946;2023-02-13T12:58:37;101084.34;;;15.39;60.68
55460;BME280;41326;45.302;-122.946;2023-02-13T13:00:58;101085.66;;;15.35;60.73